sensor_id;sensor_type;location;lat;lon;timestamp;temperature;humidity
56761;DHT22;42633;44.494;11.356;2022-07-18T00:02:34;27.10;80.20
56761;DHT22;42633;44.494;11.356;2022-07-18T00:05:38;27.10;80.50
56761;DHT22;42633;44.494;11.356;2022-07-18T00:09:08;27.00;80.40
56761;DHT22;42633;44.494;11.356;2022-07-18T00:12:30;27.00;80.60
56761;DHT22;42633;44.494;11.356;2022-07-18T00:15:38;26.90;80.60
56761;DHT22;42633;44.494;11.356;2022-07-18T00:18:45;26.90;80.70
56761;DHT22;42633;44.494;11.356;2022-07-18T00:21:50;26.90;80.70
56761;DHT22;42633;44.494;11.356;2022-07-18T00:24:53;26.80;81.00
56761;DHT22;42633;44.494;11.356;2022-07-18T00:27:57;26.80;81.40
56761;DHT22;42633;44.494;11.356;2022-07-18T00:31:01;26.80;81.40
56761;DHT22;42633;44.494;11.356;2022-07-18T00:34:06;26.70;81.40
56761;DHT22;42633;44.494;11.356;2022-07-18T00:37:10;26.70;81.60
56761;DHT22;42633;44.494;11.356;2022-07-18T00:40:14;26.70;81.50
56761;DHT22;42633;44.494;11.356;2022-07-18T00:43:18;26.80;81.40
56761;DHT22;42633;44.494;11.356;2022-07-18T00:46:26;26.80;81.60
56761;DHT22;42633;44.494;11.356;2022-07-18T00:49:31;26.70;81.70
56761;DHT22;42633;44.494;11.356;2022-07-18T00:52:36;26.60;82.10
56761;DHT22;42633;44.494;11.356;2022-07-18T00:55:43;26.50;82.40
56761;DHT22;42633;44.494;11.356;2022-07-18T00:58:47;26.40;82.70
56761;DHT22;42633;44.494;11.356;2022-07-18T01:01:52;26.30;82.90
56761;DHT22;42633;44.494;11.356;2022-07-18T01:04:56;26.20;83.10
56761;DHT22;42633;44.494;11.356;2022-07-18T01:08:00;26.20;83.20
56761;DHT22;42633;44.494;11.356;2022-07-18T01:11:04;26.20;83.10
56761;DHT22;42633;44.494;11.356;2022-07-18T01:14:08;26.20;83.00
56761;DHT22;42633;44.494;11.356;2022-07-18T01:17:17;26.30;82.70
56761;DHT22;42633;44.494;11.356;2022-07-18T01:20:21;26.30;82.60
56761;DHT22;42633;44.494;11.356;2022-07-18T01:23:25;26.30;82.40
56761;DHT22;42633;44.494;11.356;2022-07-18T01:26:29;26.40;82.80
56761;DHT22;42633;44.494;11.356;2022-07-18T01:29:33;26.40;82.90
56761;DHT22;42633;44.494;11.356;2022-07-18T01:32:37;26.50;82.70
56761;DHT22;42633;44.494;11.356;2022-07-18T01:35:41;26.50;82.80
56761;DHT22;42633;44.494;11.356;2022-07-18T01:38:45;26.50;82.70
56761;DHT22;42633;44.494;11.356;2022-07-18T01:42:04;26.40;82.70
56761;DHT22;42633;44.494;11.356;2022-07-18T01:45:08;26.40;82.90
56761;DHT22;42633;44.494;11.356;2022-07-18T01:48:12;26.40;82.90
56761;DHT22;42633;44.494;11.356;2022-07-18T01:51:16;26.40;83.10
56761;DHT22;42633;44.494;11.356;2022-07-18T01:54:25;26.30;83.40
56761;DHT22;42633;44.494;11.356;2022-07-18T01:57:29;26.30;83.60
56761;DHT22;42633;44.494;11.356;2022-07-18T02:00:33;26.30;83.50
56761;DHT22;42633;44.494;11.356;2022-07-18T02:03:38;26.30;83.70
56761;DHT22;42633;44.494;11.356;2022-07-18T02:06:42;26.30;83.70
56761;DHT22;42633;44.494;11.356;2022-07-18T02:09:46;26.30;83.70
56761;DHT22;42633;44.494;11.356;2022-07-18T02:12:49;26.20;83.80
56761;DHT22;42633;44.494;11.356;2022-07-18T02:15:54;26.30;84.00
56761;DHT22;42633;44.494;11.356;2022-07-18T02:18:59;26.20;84.20
56761;DHT22;42633;44.494;11.356;2022-07-18T02:22:03;26.30;83.80
56761;DHT22;42633;44.494;11.356;2022-07-18T02:25:08;26.30;84.10
56761;DHT22;42633;44.494;11.356;2022-07-18T02:28:12;26.20;84.30
56761;DHT22;42633;44.494;11.356;2022-07-18T02:31:16;26.10;84.60
56761;DHT22;42633;44.494;11.356;2022-07-18T02:34:20;26.10;84.40
56761;DHT22;42633;44.494;11.356;2022-07-18T02:37:24;26.10;84.40
56761;DHT22;42633;44.494;11.356;2022-07-18T02:40:28;26.00;84.10
56761;DHT22;42633;44.494;11.356;2022-07-18T02:43:32;25.90;84.20
56761;DHT22;42633;44.494;11.356;2022-07-18T02:46:36;25.80;84.60
56761;DHT22;42633;44.494;11.356;2022-07-18T02:49:40;25.70;84.80
56761;DHT22;42633;44.494;11.356;2022-07-18T02:52:45;25.70;84.80
56761;DHT22;42633;44.494;11.356;2022-07-18T02:55:50;25.70;84.80
56761;DHT22;42633;44.494;11.356;2022-07-18T02:58:54;25.60;84.90
56761;DHT22;42633;44.494;11.356;2022-07-18T03:01:59;25.60;84.90
56761;DHT22;42633;44.494;11.356;2022-07-18T03:05:03;25.60;85.00
56761;DHT22;42633;44.494;11.356;2022-07-18T03:08:07;25.50;85.30
56761;DHT22;42633;44.494;11.356;2022-07-18T03:11:11;25.50;85.20
56761;DHT22;42633;44.494;11.356;2022-07-18T03:14:15;25.60;85.10
56761;DHT22;42633;44.494;11.356;2022-07-18T03:17:19;25.60;85.30
56761;DHT22;42633;44.494;11.356;2022-07-18T03:20:23;25.70;86.30
56761;DHT22;42633;44.494;11.356;2022-07-18T03:23:27;25.60;86.60
56761;DHT22;42633;44.494;11.356;2022-07-18T03:26:31;25.60;87.10
56761;DHT22;42633;44.494;11.356;2022-07-18T03:29:35;25.60;87.40
56761;DHT22;42633;44.494;11.356;2022-07-18T03:32:39;25.60;87.70
56761;DHT22;42633;44.494;11.356;2022-07-18T03:35:43;25.50;88.20
56761;DHT22;42633;44.494;11.356;2022-07-18T03:38:48;25.40;88.20
56761;DHT22;42633;44.494;11.356;2022-07-18T03:41:51;25.40;88.50
56761;DHT22;42633;44.494;11.356;2022-07-18T03:44:56;25.40;88.70
56761;DHT22;42633;44.494;11.356;2022-07-18T03:47:59;25.30;88.90
56761;DHT22;42633;44.494;11.356;2022-07-18T03:51:04;25.30;89.40
56761;DHT22;42633;44.494;11.356;2022-07-18T03:54:08;25.20;89.80
56761;DHT22;42633;44.494;11.356;2022-07-18T03:57:13;25.20;90.00
56761;DHT22;42633;44.494;11.356;2022-07-18T04:00:17;25.10;90.20
56761;DHT22;42633;44.494;11.356;2022-07-18T04:03:21;25.10;90.50
56761;DHT22;42633;44.494;11.356;2022-07-18T04:06:25;25.10;91.30
56761;DHT22;42633;44.494;11.356;2022-07-18T04:09:29;25.10;91.70
56761;DHT22;42633;44.494;11.356;2022-07-18T04:12:34;25.00;92.00
56761;DHT22;42633;44.494;11.356;2022-07-18T04:15:38;24.90;92.10
56761;DHT22;42633;44.494;11.356;2022-07-18T04:18:43;24.90;92.00
56761;DHT22;42633;44.494;11.356;2022-07-18T04:21:47;24.90;91.80
56761;DHT22;42633;44.494;11.356;2022-07-18T04:24:50;25.00;91.40
56761;DHT22;42633;44.494;11.356;2022-07-18T04:27:55;25.00;91.30
56761;DHT22;42633;44.494;11.356;2022-07-18T04:31:00;25.10;91.10
56761;DHT22;42633;44.494;11.356;2022-07-18T04:34:05;25.10;91.10
56761;DHT22;42633;44.494;11.356;2022-07-18T04:37:08;25.10;91.10
56761;DHT22;42633;44.494;11.356;2022-07-18T04:40:13;25.20;91.10
56761;DHT22;42633;44.494;11.356;2022-07-18T04:43:17;25.20;91.00
56761;DHT22;42633;44.494;11.356;2022-07-18T04:46:22;25.30;91.00
56761;DHT22;42633;44.494;11.356;2022-07-18T04:49:26;25.20;91.40
56761;DHT22;42633;44.494;11.356;2022-07-18T04:52:42;25.10;91.80
56761;DHT22;42633;44.494;11.356;2022-07-18T04:55:46;25.10;91.80
56761;DHT22;42633;44.494;11.356;2022-07-18T04:58:50;25.10;92.00
56761;DHT22;42633;44.494;11.356;2022-07-18T05:01:54;25.20;91.90
56761;DHT22;42633;44.494;11.356;2022-07-18T05:04:58;25.30;91.80
56761;DHT22;42633;44.494;11.356;2022-07-18T05:08:03;25.30;91.60
56761;DHT22;42633;44.494;11.356;2022-07-18T05:11:07;25.40;91.40
56761;DHT22;42633;44.494;11.356;2022-07-18T05:14:11;25.40;91.30
56761;DHT22;42633;44.494;11.356;2022-07-18T05:17:15;25.50;91.20
56761;DHT22;42633;44.494;11.356;2022-07-18T05:20:21;26.00;90.50
56761;DHT22;42633;44.494;11.356;2022-07-18T05:23:25;26.60;89.10
56761;DHT22;42633;44.494;11.356;2022-07-18T05:26:29;27.10;88.00
56761;DHT22;42633;44.494;11.356;2022-07-18T05:29:33;27.40;86.70
56761;DHT22;42633;44.494;11.356;2022-07-18T05:32:38;27.60;85.70
56761;DHT22;42633;44.494;11.356;2022-07-18T05:35:45;27.80;85.30
56761;DHT22;42633;44.494;11.356;2022-07-18T05:38:49;27.90;84.90
56761;DHT22;42633;44.494;11.356;2022-07-18T05:41:53;27.90;85.30
56761;DHT22;42633;44.494;11.356;2022-07-18T05:44:58;27.80;85.10
56761;DHT22;42633;44.494;11.356;2022-07-18T05:48:02;27.90;84.90
56761;DHT22;42633;44.494;11.356;2022-07-18T05:51:06;27.90;84.40
56761;DHT22;42633;44.494;11.356;2022-07-18T05:54:11;28.00;84.30
56761;DHT22;42633;44.494;11.356;2022-07-18T05:57:15;28.00;84.10
56761;DHT22;42633;44.494;11.356;2022-07-18T06:00:44;28.10;83.60
56761;DHT22;42633;44.494;11.356;2022-07-18T06:03:49;28.10;83.20
56761;DHT22;42633;44.494;11.356;2022-07-18T06:06:53;28.10;83.20
56761;DHT22;42633;44.494;11.356;2022-07-18T06:09:57;28.20;82.90
56761;DHT22;42633;44.494;11.356;2022-07-18T06:13:02;28.20;82.80
56761;DHT22;42633;44.494;11.356;2022-07-18T06:16:06;28.20;82.60
56761;DHT22;42633;44.494;11.356;2022-07-18T06:19:10;28.10;83.20
56761;DHT22;42633;44.494;11.356;2022-07-18T06:22:15;28.00;82.60
56761;DHT22;42633;44.494;11.356;2022-07-18T06:25:19;27.90;82.90
56761;DHT22;42633;44.494;11.356;2022-07-18T06:28:23;27.80;84.10
56761;DHT22;42633;44.494;11.356;2022-07-18T06:31:28;27.70;83.80
56761;DHT22;42633;44.494;11.356;2022-07-18T06:34:32;27.60;84.00
56761;DHT22;42633;44.494;11.356;2022-07-18T06:37:37;27.50;84.30
56761;DHT22;42633;44.494;11.356;2022-07-18T06:40:41;27.50;84.30
56761;DHT22;42633;44.494;11.356;2022-07-18T06:43:46;27.60;84.50
56761;DHT22;42633;44.494;11.356;2022-07-18T06:46:50;27.60;83.50
56761;DHT22;42633;44.494;11.356;2022-07-18T06:49:56;27.60;83.40
56761;DHT22;42633;44.494;11.356;2022-07-18T06:53:00;27.70;82.80
56761;DHT22;42633;44.494;11.356;2022-07-18T06:56:04;27.80;83.50
56761;DHT22;42633;44.494;11.356;2022-07-18T06:59:09;27.90;82.30
56761;DHT22;42633;44.494;11.356;2022-07-18T07:02:13;27.90;81.90
56761;DHT22;42633;44.494;11.356;2022-07-18T07:05:20;27.90;82.40
56761;DHT22;42633;44.494;11.356;2022-07-18T07:08:24;27.90;81.60
56761;DHT22;42633;44.494;11.356;2022-07-18T07:11:28;28.00;81.70
56761;DHT22;42633;44.494;11.356;2022-07-18T07:14:33;28.10;81.90
56761;DHT22;42633;44.494;11.356;2022-07-18T07:17:37;28.20;82.00
56761;DHT22;42633;44.494;11.356;2022-07-18T07:20:42;28.30;81.60
56761;DHT22;42633;44.494;11.356;2022-07-18T07:23:46;28.30;80.00
56761;DHT22;42633;44.494;11.356;2022-07-18T07:26:50;28.40;79.90
56761;DHT22;42633;44.494;11.356;2022-07-18T07:29:54;28.40;79.90
56761;DHT22;42633;44.494;11.356;2022-07-18T07:32:59;28.40;77.70
56761;DHT22;42633;44.494;11.356;2022-07-18T07:36:03;28.50;76.30
56761;DHT22;42633;44.494;11.356;2022-07-18T07:39:08;28.50;74.60
56761;DHT22;42633;44.494;11.356;2022-07-18T07:42:13;28.50;74.30
56761;DHT22;42633;44.494;11.356;2022-07-18T07:45:17;28.70;74.60
56761;DHT22;42633;44.494;11.356;2022-07-18T07:48:22;28.80;75.00
56761;DHT22;42633;44.494;11.356;2022-07-18T07:51:26;29.00;74.40
56761;DHT22;42633;44.494;11.356;2022-07-18T07:54:31;29.10;73.10
56761;DHT22;42633;44.494;11.356;2022-07-18T07:57:34;29.20;72.80
56761;DHT22;42633;44.494;11.356;2022-07-18T08:00:40;29.20;73.40
56761;DHT22;42633;44.494;11.356;2022-07-18T08:03:45;29.40;73.60
56761;DHT22;42633;44.494;11.356;2022-07-18T08:06:50;29.40;73.10
56761;DHT22;42633;44.494;11.356;2022-07-18T08:09:54;29.50;72.10
56761;DHT22;42633;44.494;11.356;2022-07-18T08:12:58;29.60;71.90
56761;DHT22;42633;44.494;11.356;2022-07-18T08:16:02;29.70;71.60
56761;DHT22;42633;44.494;11.356;2022-07-18T08:19:09;29.80;71.00
56761;DHT22;42633;44.494;11.356;2022-07-18T08:22:23;29.80;70.40
56761;DHT22;42633;44.494;11.356;2022-07-18T08:25:29;29.90;70.20
56761;DHT22;42633;44.494;11.356;2022-07-18T08:28:33;30.00;69.10
56761;DHT22;42633;44.494;11.356;2022-07-18T08:31:38;30.10;69.20
56761;DHT22;42633;44.494;11.356;2022-07-18T08:34:42;30.20;68.00
56761;DHT22;42633;44.494;11.356;2022-07-18T08:37:46;30.30;67.90
56761;DHT22;42633;44.494;11.356;2022-07-18T08:40:52;30.40;67.70
56761;DHT22;42633;44.494;11.356;2022-07-18T08:43:56;30.50;67.00
56761;DHT22;42633;44.494;11.356;2022-07-18T08:47:02;30.50;67.50
56761;DHT22;42633;44.494;11.356;2022-07-18T08:50:07;30.60;67.70
56761;DHT22;42633;44.494;11.356;2022-07-18T08:53:13;30.70;67.00
56761;DHT22;42633;44.494;11.356;2022-07-18T08:56:18;30.90;67.40
56761;DHT22;42633;44.494;11.356;2022-07-18T08:59:22;31.00;67.10
56761;DHT22;42633;44.494;11.356;2022-07-18T09:02:26;31.20;65.50
56761;DHT22;42633;44.494;11.356;2022-07-18T09:05:32;31.10;65.20
56761;DHT22;42633;44.494;11.356;2022-07-18T09:08:38;31.20;64.90
56761;DHT22;42633;44.494;11.356;2022-07-18T09:11:57;31.30;65.60
56761;DHT22;42633;44.494;11.356;2022-07-18T09:15:08;31.40;65.60
56761;DHT22;42633;44.494;11.356;2022-07-18T09:18:26;31.40;65.10
56761;DHT22;42633;44.494;11.356;2022-07-18T09:21:31;31.50;65.60
56761;DHT22;42633;44.494;11.356;2022-07-18T09:25:31;31.60;65.30
56761;DHT22;42633;44.494;11.356;2022-07-18T09:28:26;31.60;64.60
56761;DHT22;42633;44.494;11.356;2022-07-18T09:31:30;31.70;65.00
56761;DHT22;42633;44.494;11.356;2022-07-18T09:34:37;31.80;65.00
56761;DHT22;42633;44.494;11.356;2022-07-18T09:37:59;31.80;64.60
56761;DHT22;42633;44.494;11.356;2022-07-18T09:41:10;31.90;64.30
56761;DHT22;42633;44.494;11.356;2022-07-18T09:44:18;32.10;64.30
56761;DHT22;42633;44.494;11.356;2022-07-18T09:47:30;32.20;64.10
56761;DHT22;42633;44.494;11.356;2022-07-18T09:50:42;32.20;63.80
56761;DHT22;42633;44.494;11.356;2022-07-18T09:53:47;32.30;64.20
56761;DHT22;42633;44.494;11.356;2022-07-18T09:56:52;32.40;64.30
56761;DHT22;42633;44.494;11.356;2022-07-18T09:59:56;32.40;64.00
56761;DHT22;42633;44.494;11.356;2022-07-18T10:03:01;32.40;64.50
56761;DHT22;42633;44.494;11.356;2022-07-18T10:06:06;32.40;64.00
56761;DHT22;42633;44.494;11.356;2022-07-18T10:09:10;32.50;64.20
56761;DHT22;42633;44.494;11.356;2022-07-18T10:12:14;32.50;64.50
56761;DHT22;42633;44.494;11.356;2022-07-18T10:15:21;32.70;64.50
56761;DHT22;42633;44.494;11.356;2022-07-18T10:18:28;32.80;64.80
56761;DHT22;42633;44.494;11.356;2022-07-18T10:21:33;32.90;64.20
56761;DHT22;42633;44.494;11.356;2022-07-18T10:24:39;32.90;63.80
56761;DHT22;42633;44.494;11.356;2022-07-18T10:28:01;32.90;64.40
56761;DHT22;42633;44.494;11.356;2022-07-18T10:31:15;32.70;64.50
56761;DHT22;42633;44.494;11.356;2022-07-18T10:34:28;32.90;64.40
56761;DHT22;42633;44.494;11.356;2022-07-18T10:37:33;32.80;64.70
56761;DHT22;42633;44.494;11.356;2022-07-18T10:41:16;32.90;64.60
56761;DHT22;42633;44.494;11.356;2022-07-18T10:47:28;33.10;64.40
56761;DHT22;42633;44.494;11.356;2022-07-18T10:50:59;33.10;64.00
56761;DHT22;42633;44.494;11.356;2022-07-18T10:54:06;33.20;63.40
56761;DHT22;42633;44.494;11.356;2022-07-18T10:57:11;33.40;63.30
56761;DHT22;42633;44.494;11.356;2022-07-18T11:00:23;33.50;63.50
56761;DHT22;42633;44.494;11.356;2022-07-18T11:03:29;33.50;63.30
56761;DHT22;42633;44.494;11.356;2022-07-18T11:06:52;33.40;63.40
56761;DHT22;42633;44.494;11.356;2022-07-18T11:09:57;33.40;62.80
56761;DHT22;42633;44.494;11.356;2022-07-18T11:13:21;33.40;62.20
56761;DHT22;42633;44.494;11.356;2022-07-18T11:16:24;33.50;61.70
56761;DHT22;42633;44.494;11.356;2022-07-18T11:19:28;33.40;61.40
56761;DHT22;42633;44.494;11.356;2022-07-18T11:22:34;33.60;61.50
56761;DHT22;42633;44.494;11.356;2022-07-18T11:25:38;33.70;61.70
56761;DHT22;42633;44.494;11.356;2022-07-18T11:28:43;33.90;61.10
56761;DHT22;42633;44.494;11.356;2022-07-18T11:31:50;34.00;60.70
56761;DHT22;42633;44.494;11.356;2022-07-18T11:34:54;34.00;60.80
56761;DHT22;42633;44.494;11.356;2022-07-18T11:38:04;34.00;60.50
56761;DHT22;42633;44.494;11.356;2022-07-18T11:41:08;34.00;59.80
56761;DHT22;42633;44.494;11.356;2022-07-18T11:44:18;34.10;58.50
56761;DHT22;42633;44.494;11.356;2022-07-18T11:47:22;34.20;58.50
56761;DHT22;42633;44.494;11.356;2022-07-18T11:50:36;34.20;58.40
56761;DHT22;42633;44.494;11.356;2022-07-18T11:53:45;34.20;57.70
56761;DHT22;42633;44.494;11.356;2022-07-18T11:56:52;34.20;57.00
56761;DHT22;42633;44.494;11.356;2022-07-18T11:59:58;34.40;57.10
56761;DHT22;42633;44.494;11.356;2022-07-18T12:03:19;34.50;57.00
56761;DHT22;42633;44.494;11.356;2022-07-18T12:06:25;34.50;56.50
56761;DHT22;42633;44.494;11.356;2022-07-18T12:09:31;34.40;56.30
56761;DHT22;42633;44.494;11.356;2022-07-18T12:12:35;34.40;56.10
56761;DHT22;42633;44.494;11.356;2022-07-18T12:15:44;34.50;54.80
56761;DHT22;42633;44.494;11.356;2022-07-18T12:18:50;34.60;55.40
56761;DHT22;42633;44.494;11.356;2022-07-18T12:21:56;34.60;55.30
56761;DHT22;42633;44.494;11.356;2022-07-18T12:25:00;34.80;55.40
56761;DHT22;42633;44.494;11.356;2022-07-18T12:28:16;34.90;54.50
56761;DHT22;42633;44.494;11.356;2022-07-18T12:31:40;35.00;54.50
56761;DHT22;42633;44.494;11.356;2022-07-18T12:35:00;35.00;53.60
56761;DHT22;42633;44.494;11.356;2022-07-18T12:41:27;35.00;52.60
56761;DHT22;42633;44.494;11.356;2022-07-18T12:44:46;34.90;51.50
56761;DHT22;42633;44.494;11.356;2022-07-18T12:47:51;34.70;51.30
56761;DHT22;42633;44.494;11.356;2022-07-18T12:50:57;34.60;52.40
56761;DHT22;42633;44.494;11.356;2022-07-18T12:54:02;34.70;51.30
56761;DHT22;42633;44.494;11.356;2022-07-18T12:57:07;34.70;51.00
56761;DHT22;42633;44.494;11.356;2022-07-18T13:00:12;34.80;51.60
56761;DHT22;42633;44.494;11.356;2022-07-18T13:03:16;34.90;50.50
56761;DHT22;42633;44.494;11.356;2022-07-18T13:06:21;35.00;49.90
56761;DHT22;42633;44.494;11.356;2022-07-18T13:09:25;35.10;49.60
56761;DHT22;42633;44.494;11.356;2022-07-18T13:12:30;35.00;49.90
56761;DHT22;42633;44.494;11.356;2022-07-18T13:15:34;34.90;49.20
56761;DHT22;42633;44.494;11.356;2022-07-18T13:18:39;34.90;49.70
56761;DHT22;42633;44.494;11.356;2022-07-18T13:21:44;34.90;49.90
56761;DHT22;42633;44.494;11.356;2022-07-18T13:24:49;35.00;49.30
56761;DHT22;42633;44.494;11.356;2022-07-18T13:27:53;34.90;49.80
56761;DHT22;42633;44.494;11.356;2022-07-18T13:30:57;34.90;49.90
56761;DHT22;42633;44.494;11.356;2022-07-18T13:34:01;34.90;48.90
56761;DHT22;42633;44.494;11.356;2022-07-18T13:37:06;34.90;49.10
56761;DHT22;42633;44.494;11.356;2022-07-18T13:40:10;34.90;48.60
56761;DHT22;42633;44.494;11.356;2022-07-18T13:43:16;34.90;49.10
56761;DHT22;42633;44.494;11.356;2022-07-18T13:46:20;35.00;50.20
56761;DHT22;42633;44.494;11.356;2022-07-18T13:49:24;35.00;48.60
56761;DHT22;42633;44.494;11.356;2022-07-18T13:52:28;35.00;49.00
56761;DHT22;42633;44.494;11.356;2022-07-18T13:55:32;34.90;49.10
56761;DHT22;42633;44.494;11.356;2022-07-18T13:58:37;34.90;49.10
56761;DHT22;42633;44.494;11.356;2022-07-18T14:01:41;35.00;49.20
56761;DHT22;42633;44.494;11.356;2022-07-18T14:04:45;34.90;50.90
56761;DHT22;42633;44.494;11.356;2022-07-18T14:07:50;34.80;49.70
56761;DHT22;42633;44.494;11.356;2022-07-18T14:10:54;34.80;49.30
56761;DHT22;42633;44.494;11.356;2022-07-18T14:13:59;34.80;49.40
56761;DHT22;42633;44.494;11.356;2022-07-18T14:17:03;34.80;49.20
56761;DHT22;42633;44.494;11.356;2022-07-18T14:20:08;34.80;48.70
56761;DHT22;42633;44.494;11.356;2022-07-18T14:23:13;34.80;48.80
56761;DHT22;42633;44.494;11.356;2022-07-18T14:26:17;34.80;48.70
56761;DHT22;42633;44.494;11.356;2022-07-18T14:29:25;34.80;48.60
56761;DHT22;42633;44.494;11.356;2022-07-18T14:32:29;34.80;48.50
56761;DHT22;42633;44.494;11.356;2022-07-18T14:35:34;34.80;47.50
56761;DHT22;42633;44.494;11.356;2022-07-18T14:38:38;34.80;48.20
56761;DHT22;42633;44.494;11.356;2022-07-18T14:41:42;34.70;48.50
56761;DHT22;42633;44.494;11.356;2022-07-18T14:44:46;34.60;48.20
56761;DHT22;42633;44.494;11.356;2022-07-18T14:47:50;34.50;48.70
56761;DHT22;42633;44.494;11.356;2022-07-18T14:50:54;34.50;48.60
56761;DHT22;42633;44.494;11.356;2022-07-18T14:53:59;34.50;48.40
56761;DHT22;42633;44.494;11.356;2022-07-18T14:57:03;34.50;48.50
56761;DHT22;42633;44.494;11.356;2022-07-18T15:00:08;34.50;49.20
56761;DHT22;42633;44.494;11.356;2022-07-18T15:03:13;34.50;48.60
56761;DHT22;42633;44.494;11.356;2022-07-18T15:06:19;34.50;48.30
56761;DHT22;42633;44.494;11.356;2022-07-18T15:09:23;34.40;48.10
56761;DHT22;42633;44.494;11.356;2022-07-18T15:12:27;34.40;50.00
56761;DHT22;42633;44.494;11.356;2022-07-18T15:15:32;34.40;49.20
56761;DHT22;42633;44.494;11.356;2022-07-18T15:18:36;34.30;49.30
56761;DHT22;42633;44.494;11.356;2022-07-18T15:21:40;34.30;49.20
56761;DHT22;42633;44.494;11.356;2022-07-18T15:24:44;34.20;49.30
56761;DHT22;42633;44.494;11.356;2022-07-18T15:27:49;34.20;48.80
56761;DHT22;42633;44.494;11.356;2022-07-18T15:30:53;34.10;49.30
56761;DHT22;42633;44.494;11.356;2022-07-18T15:33:57;34.00;49.40
56761;DHT22;42633;44.494;11.356;2022-07-18T15:37:01;33.90;48.80
56761;DHT22;42633;44.494;11.356;2022-07-18T15:40:06;33.80;48.70
56761;DHT22;42633;44.494;11.356;2022-07-18T15:43:10;33.90;50.00
56761;DHT22;42633;44.494;11.356;2022-07-18T15:46:15;33.90;49.40
56761;DHT22;42633;44.494;11.356;2022-07-18T15:49:21;33.80;49.50
56761;DHT22;42633;44.494;11.356;2022-07-18T15:52:25;33.90;49.10
56761;DHT22;42633;44.494;11.356;2022-07-18T15:55:29;33.80;48.60
56761;DHT22;42633;44.494;11.356;2022-07-18T15:58:33;33.80;48.60
56761;DHT22;42633;44.494;11.356;2022-07-18T16:01:38;33.80;48.60
56761;DHT22;42633;44.494;11.356;2022-07-18T16:04:42;33.80;49.40
56761;DHT22;42633;44.494;11.356;2022-07-18T16:07:45;33.70;48.70
56761;DHT22;42633;44.494;11.356;2022-07-18T16:10:49;33.70;48.80
56761;DHT22;42633;44.494;11.356;2022-07-18T16:13:54;33.70;48.50
56761;DHT22;42633;44.494;11.356;2022-07-18T16:16:59;33.60;49.70
56761;DHT22;42633;44.494;11.356;2022-07-18T16:20:04;33.50;48.30
56761;DHT22;42633;44.494;11.356;2022-07-18T16:23:08;33.50;49.10
56761;DHT22;42633;44.494;11.356;2022-07-18T16:26:12;33.60;50.50
56761;DHT22;42633;44.494;11.356;2022-07-18T16:29:16;34.30;48.70
56761;DHT22;42633;44.494;11.356;2022-07-18T16:32:20;35.70;48.50
56761;DHT22;42633;44.494;11.356;2022-07-18T16:35:24;37.20;46.10
56761;DHT22;42633;44.494;11.356;2022-07-18T16:38:28;37.90;45.30
56761;DHT22;42633;44.494;11.356;2022-07-18T16:41:33;38.60;45.10
56761;DHT22;42633;44.494;11.356;2022-07-18T16:44:37;39.10;44.60
56761;DHT22;42633;44.494;11.356;2022-07-18T16:47:42;39.40;44.30
56761;DHT22;42633;44.494;11.356;2022-07-18T16:50:46;39.60;44.80
56761;DHT22;42633;44.494;11.356;2022-07-18T16:53:51;39.80;44.10
56761;DHT22;42633;44.494;11.356;2022-07-18T16:56:55;39.90;43.70
56761;DHT22;42633;44.494;11.356;2022-07-18T16:59:59;40.30;43.50
56761;DHT22;42633;44.494;11.356;2022-07-18T17:03:04;40.50;43.10
56761;DHT22;42633;44.494;11.356;2022-07-18T17:06:08;40.30;42.30
56761;DHT22;42633;44.494;11.356;2022-07-18T17:09:12;39.90;43.50
56761;DHT22;42633;44.494;11.356;2022-07-18T17:12:18;40.00;42.40
56761;DHT22;42633;44.494;11.356;2022-07-18T17:15:23;40.30;42.30
56761;DHT22;42633;44.494;11.356;2022-07-18T17:18:28;40.50;41.70
56761;DHT22;42633;44.494;11.356;2022-07-18T17:21:46;39.60;42.20
56761;DHT22;42633;44.494;11.356;2022-07-18T17:24:56;38.30;43.00
56761;DHT22;42633;44.494;11.356;2022-07-18T17:28:07;36.70;44.10
56761;DHT22;42633;44.494;11.356;2022-07-18T17:31:12;35.60;45.60
56761;DHT22;42633;44.494;11.356;2022-07-18T17:34:20;34.90;45.90
56761;DHT22;42633;44.494;11.356;2022-07-18T17:37:27;34.30;46.00
56761;DHT22;42633;44.494;11.356;2022-07-18T17:40:32;34.00;47.20
56761;DHT22;42633;44.494;11.356;2022-07-18T17:43:37;33.70;46.70
56761;DHT22;42633;44.494;11.356;2022-07-18T17:46:44;33.50;47.20
56761;DHT22;42633;44.494;11.356;2022-07-18T17:49:48;33.30;47.40
56761;DHT22;42633;44.494;11.356;2022-07-18T17:52:52;33.10;47.00
56761;DHT22;42633;44.494;11.356;2022-07-18T17:55:58;33.00;48.00
56761;DHT22;42633;44.494;11.356;2022-07-18T17:59:02;32.90;46.80
56761;DHT22;42633;44.494;11.356;2022-07-18T18:02:07;32.70;46.50
56761;DHT22;42633;44.494;11.356;2022-07-18T18:05:12;32.60;48.10
56761;DHT22;42633;44.494;11.356;2022-07-18T18:08:41;32.50;47.60
56761;DHT22;42633;44.494;11.356;2022-07-18T18:11:47;32.50;47.30
56761;DHT22;42633;44.494;11.356;2022-07-18T18:18:20;32.20;46.80
56761;DHT22;42633;44.494;11.356;2022-07-18T18:21:24;32.10;47.00
56761;DHT22;42633;44.494;11.356;2022-07-18T18:24:54;31.90;47.70
56761;DHT22;42633;44.494;11.356;2022-07-18T18:27:58;31.80;47.90
56761;DHT22;42633;44.494;11.356;2022-07-18T18:31:02;31.80;47.70
56761;DHT22;42633;44.494;11.356;2022-07-18T18:34:06;31.70;47.40
56761;DHT22;42633;44.494;11.356;2022-07-18T18:37:10;31.60;47.20
56761;DHT22;42633;44.494;11.356;2022-07-18T18:40:16;31.50;47.70
56761;DHT22;42633;44.494;11.356;2022-07-18T18:43:20;31.40;47.80
56761;DHT22;42633;44.494;11.356;2022-07-18T18:46:27;31.40;50.10
56761;DHT22;42633;44.494;11.356;2022-07-18T18:49:36;31.30;48.70
56761;DHT22;42633;44.494;11.356;2022-07-18T18:52:45;31.30;48.80
56761;DHT22;42633;44.494;11.356;2022-07-18T18:55:53;31.10;48.80
56761;DHT22;42633;44.494;11.356;2022-07-18T18:58:57;31.00;49.50
56761;DHT22;42633;44.494;11.356;2022-07-18T19:02:01;31.00;50.00
56761;DHT22;42633;44.494;11.356;2022-07-18T19:05:05;30.90;49.60
56761;DHT22;42633;44.494;11.356;2022-07-18T19:08:09;30.80;49.80
56761;DHT22;42633;44.494;11.356;2022-07-18T19:11:13;30.70;50.20
56761;DHT22;42633;44.494;11.356;2022-07-18T19:14:18;30.70;50.60
56761;DHT22;42633;44.494;11.356;2022-07-18T19:17:22;30.70;50.50
56761;DHT22;42633;44.494;11.356;2022-07-18T19:20:51;30.60;50.60
56761;DHT22;42633;44.494;11.356;2022-07-18T19:23:55;30.50;51.30
56761;DHT22;42633;44.494;11.356;2022-07-18T19:27:01;30.40;51.50